Time;durP1;ratioP1;P1;durP2;ratioP2;P2;SDS_P1;SDS_P2;PMS_P1;PMS_P2;Temp;Humidity;BMP_temperature;BMP_pressure;BME280_temperature;BME280_humidity;BME280_pressure;Samples;Min_cycle;Max_cycle;Signal;HPM_P1;HPM_P2
2022/07/20 00:01:21;;;;;;;6.57;5.93;;;23.60;61.70;;;;;;4958624;28;89781;-33
2022/07/20 00:03:47;;;;;;;6.28;5.50;;;23.50;61.70;;;;;;4959459;28;89001;-33
2022/07/20 00:06:13;;;;;;;6.45;5.93;;;23.50;61.50;;;;;;4958553;28;90796;-32
2022/07/20 00:11:25;;;;;;;9.70;6.00;;;23.50;62.00;;;;;;4941755;28;87740;-34
2022/07/20 00:13:57;;;;;;;6.40;5.90;;;23.40;61.40;;;;;;4942834;28;89955;-31
2022/07/20 00:16:24;;;;;;;5.63;4.75;;;23.40;61.30;;;;;;4941733;28;90341;-34
2022/07/20 00:18:50;;;;;;;;;;;23.40;61.90;;;;;;4942530;28;91372;-33
2022/07/20 00:21:16;;;;;;;5.38;4.88;;;23.30;61.40;;;;;;4944276;28;90501;-36
2022/07/20 00:23:42;;;;;;;5.43;5.03;;;23.30;62.50;;;;;;4943258;28;88304;-33
2022/07/20 00:26:08;;;;;;;5.72;5.32;;;23.20;64.60;;;;;;4942075;28;90368;-31
2022/07/20 00:28:34;;;;;;;8.65;5.07;;;23.20;64.90;;;;;;4942369;28;89781;-31
2022/07/20 00:31:00;;;;;;;5.90;5.15;;;23.10;66.60;;;;;;4940747;28;91124;-32
2022/07/20 00:33:25;;;;;;;7.20;5.90;;;23.10;65.70;;;;;;4942711;28;87805;-33
2022/07/20 00:35:51;;;;;;;9.57;6.05;;;23.10;65.20;;;;;;4941117;28;89878;-34
2022/07/20 00:38:17;;;;;;;5.80;5.30;;;23.00;65.20;;;;;;4941557;28;90106;-32
2022/07/20 00:40:42;;;;;;;6.10;5.60;;;23.00;65.00;;;;;;4942672;28;89749;-35
2022/07/20 00:43:08;;;;;;;6.78;6.07;;;23.00;65.00;;;;;;4941921;28;90110;-32
2022/07/20 00:45:33;;;;;;;5.95;5.45;;;22.90;65.00;;;;;;4941871;28;90717;-32
2022/07/20 00:47:59;;;;;;;6.10;5.55;;;22.90;65.50;;;;;;4942555;28;89967;-33
2022/07/20 00:50:25;;;;;;;6.82;6.22;;;22.90;66.60;;;;;;4942004;28;89191;-33
2022/07/20 00:52:52;;;;;;;6.63;5.97;;;22.80;68.30;;;;;;4942571;28;90304;-32
2022/07/20 00:55:18;;;;;;;8.50;6.63;;;22.80;68.10;;;;;;4941268;28;90762;-33
2022/07/20 00:57:43;;;;;;;6.88;5.78;;;22.80;66.10;;;;;;4942438;28;89657;-32
2022/07/20 01:00:10;;;;;;;6.40;5.82;;;22.80;66.50;;;;;;4942768;28;89859;-33
2022/07/20 01:02:38;;;;;;;6.13;5.63;;;22.80;66.20;;;;;;4941553;28;89047;-32
2022/07/20 01:05:04;;;;;;;;;;;22.70;66.60;;;;;;4942024;28;90293;-32
2022/07/20 01:07:30;;;;;;;7.20;5.95;;;22.70;66.80;;;;;;4943440;28;90700;-31
2022/07/20 01:09:56;;;;;;;5.72;5.25;;;22.70;69.70;;;;;;4941320;28;90670;-30
2022/07/20 01:12:21;;;;;;;6.35;5.75;;;22.60;70.30;;;;;;4942243;28;88967;-36
2022/07/20 01:14:53;;;;;;;8.63;6.28;;;22.60;71.50;;;;;;4941454;28;90608;-36
2022/07/20 01:17:18;;;;;;;6.22;5.05;;;22.60;72.30;;;;;;4941634;28;91569;-31
2022/07/20 01:19:44;;;;;;;6.55;5.95;;;22.50;75.10;;;;;;4940459;28;89347;-32
2022/07/20 01:22:10;;;;;;;6.60;6.03;;;22.40;73.20;;;;;;4941771;28;88210;-34
2022/07/20 01:24:35;;;;;;;6.15;5.43;;;22.40;72.10;;;;;;4941608;28;90585;-31
2022/07/20 01:27:04;;;;;;;8.30;7.20;;;22.40;72.40;;;;;;4941183;28;89756;-35
2022/07/20 01:29:29;;;;;;;5.80;5.32;;;22.40;72.70;;;;;;4941758;28;89485;-33
2022/07/20 01:31:55;;;;;;;9.98;5.93;;;22.30;72.50;;;;;;4940479;28;89107;-33
2022/07/20 01:34:21;;;;;;;9.70;6.00;;;22.30;77.30;;;;;;4942072;28;90218;-32
2022/07/20 01:36:46;;;;;;;8.32;6.53;;;22.30;75.80;;;;;;4941960;28;90386;-33
2022/07/20 01:39:12;;;;;;;5.88;5.38;;;22.20;75.30;;;;;;4941140;28;89468;-33
2022/07/20 01:41:38;;;;;;;10.25;5.57;;;22.20;78.70;;;;;;4941983;28;89891;-31
2022/07/20 01:44:03;;;;;;;5.78;5.28;;;22.10;83.80;;;;;;4940833;28;90251;-32
2022/07/20 01:46:29;;;;;;;6.60;6.00;;;22.10;90.50;;;;;;4942329;28;89645;-35
2022/07/20 01:48:55;;;;;;;7.20;5.90;;;22.00;90.30;;;;;;4941480;28;88611;-33
2022/07/20 01:51:20;;;;;;;5.82;5.32;;;21.90;87.40;;;;;;4941219;28;87641;-36
2022/07/20 01:53:46;;;;;;;6.50;5.90;;;22.00;88.90;;;;;;4941439;28;90280;-34
2022/07/20 01:56:11;;;;;;;6.53;5.93;;;21.90;85.50;;;;;;4940463;28;90738;-35
2022/07/20 01:58:37;;;;;;;6.90;6.20;;;21.90;84.10;;;;;;4941549;28;90431;-35
2022/07/20 02:01:02;;;;;;;7.18;6.03;;;21.90;84.20;;;;;;4940818;28;89864;-32
2022/07/20 02:03:28;;;;;;;6.15;5.55;;;21.90;85.30;;;;;;4941425;28;89361;-32
2022/07/20 02:05:54;;;;;;;6.82;6.13;;;21.90;85.70;;;;;;4940822;28;89717;-34
2022/07/20 02:08:19;;;;;;;6.35;5.07;;;21.90;85.10;;;;;;4940591;28;89309;-33
2022/07/20 02:10:45;;;;;;;6.05;5.40;;;21.80;84.10;;;;;;4941050;28;89953;-33
2022/07/20 02:13:10;;;;;;;6.78;6.07;;;21.80;82.60;;;;;;4940492;28;89924;-33
2022/07/20 02:18:21;;;;;;;9.55;6.57;;;21.80;84.80;;;;;;4940287;28;89668;-33
2022/07/20 02:20:46;;;;;;;8.85;6.45;;;21.80;83.00;;;;;;4940537;28;90806;-34
2022/07/20 02:23:12;;;;;;;8.98;6.60;;;21.80;83.70;;;;;;4940461;28;90150;-35
2022/07/20 02:25:38;;;;;;;7.80;7.00;;;21.80;84.60;;;;;;4940597;28;90325;-35
2022/07/20 02:28:05;;;;;;;6.97;6.38;;;21.80;82.20;;;;;;4940810;28;90106;-32
2022/07/20 02:30:30;;;;;;;6.10;5.47;;;21.70;84.10;;;;;;4941043;28;88162;-33
2022/07/20 02:32:56;;;;;;;7.30;5.57;;;21.70;84.40;;;;;;4940015;28;90480;-34
2022/07/20 02:35:22;;;;;;;6.97;6.30;;;21.70;84.90;;;;;;4940235;28;89976;-35
2022/07/20 02:37:47;;;;;;;8.13;6.10;;;21.70;88.40;;;;;;4940541;28;89600;-34
2022/07/20 02:40:13;;;;;;;7.55;5.97;;;21.60;87.20;;;;;;4940961;28;88908;-33
2022/07/20 02:42:38;;;;;;;8.70;6.55;;;21.60;85.90;;;;;;4940738;28;90306;-33
2022/07/20 02:45:05;;;;;;;7.00;6.30;;;21.60;86.60;;;;;;4939781;28;90592;-34
2022/07/20 02:47:30;;;;;;;9.95;5.85;;;21.50;86.70;;;;;;4939813;28;89785;-33
2022/07/20 02:49:56;;;;;;;6.32;5.80;;;21.50;86.60;;;;;;4941141;28;90357;-33
2022/07/20 02:52:21;;;;;;;9.05;5.72;;;21.50;91.10;;;;;;4939031;28;90390;-33
2022/07/20 02:54:47;;;;;;;6.28;5.78;;;21.50;91.60;;;;;;4941229;28;90006;-32
2022/07/20 02:57:12;;;;;;;6.53;5.78;;;21.40;92.90;;;;;;4940574;28;89525;-33
2022/07/20 02:59:38;;;;;;;6.50;5.82;;;21.40;94.50;;;;;;4939859;28;88049;-33
2022/07/20 03:02:04;;;;;;;9.32;5.80;;;21.40;96.10;;;;;;4939991;28;89373;-32
2022/07/20 03:04:29;;;;;;;6.47;5.97;;;21.30;95.20;;;;;;4939774;28;89882;-33
2022/07/20 03:06:55;;;;;;;6.07;5.55;;;21.30;94.70;;;;;;4940680;28;89505;-32
2022/07/20 03:09:20;;;;;;;8.65;6.00;;;21.30;94.40;;;;;;4939029;28;89017;-34
2022/07/20 03:11:46;;;;;;;10.00;5.88;;;21.30;93.80;;;;;;4940300;28;89989;-34
2022/07/20 03:14:11;;;;;;;9.27;6.82;;;21.20;93.80;;;;;;4940110;28;90933;-30
2022/07/20 03:16:37;;;;;;;7.28;6.57;;;21.20;94.10;;;;;;4939752;28;89509;-32
2022/07/20 03:19:02;;;;;;;9.63;6.10;;;21.20;94.50;;;;;;4940673;28;88346;-35
2022/07/20 03:21:28;;;;;;;6.05;5.45;;;21.20;94.70;;;;;;4940057;28;90346;-34
2022/07/20 03:23:54;;;;;;;7.05;6.40;;;21.20;96.00;;;;;;4940056;28;89158;-34
2022/07/20 03:26:21;;;;;;;9.65;6.78;;;21.10;95.50;;;;;;4939634;28;90014;-30
2022/07/20 03:28:47;;;;;;;7.65;6.90;;;21.10;96.00;;;;;;4940149;28;88277;-32
2022/07/20 03:31:13;;;;;;;8.90;7.20;;;21.10;95.60;;;;;;4940260;28;90121;-35
2022/07/20 03:33:38;;;;;;;9.15;6.60;;;21.10;96.30;;;;;;4938700;28;90515;-35
2022/07/20 03:36:04;;;;;;;8.15;7.10;;;21.10;99.10;;;;;;4939780;28;90371;-35
2022/07/20 03:38:30;;;;;;;7.03;6.32;;;21.10;98.50;;;;;;4939823;28;88574;-35
2022/07/20 03:40:55;;;;;;;9.50;6.55;;;21.00;98.00;;;;;;4939577;28;90311;-33
2022/07/20 03:43:25;;;;;;;7.43;6.65;;;21.00;98.30;;;;;;4942730;28;90069;-32
2022/07/20 03:45:51;;;;;;;9.75;7.10;;;21.00;96.80;;;;;;4943337;28;89537;-33
2022/07/20 03:48:17;;;;;;;13.70;6.30;;;21.00;97.90;;;;;;4943060;28;90116;-30
2022/07/20 03:50:42;;;;;;;9.05;6.18;;;21.00;97.70;;;;;;4943432;28;90435;-33
2022/07/20 03:53:08;;;;;;;6.82;6.07;;;21.00;97.50;;;;;;4942911;28;89509;-32
2022/07/20 03:55:34;;;;;;;7.55;6.85;;;21.00;97.20;;;;;;4943011;28;87745;-34
2022/07/20 03:57:59;;;;;;;7.47;6.82;;;21.00;98.30;;;;;;4943159;28;89597;-34
2022/07/20 04:00:25;;;;;;;7.25;6.55;;;20.90;98.90;;;;;;4942956;28;90832;-32
2022/07/20 04:02:51;;;;;;;7.43;6.60;;;20.90;97.80;;;;;;4942734;28;90310;-31
2022/07/20 04:05:16;;;;;;;11.60;7.10;;;20.90;98.00;;;;;;4943035;28;89517;-31
2022/07/20 04:07:42;;;;;;;7.88;6.20;;;20.90;97.60;;;;;;4943029;28;87709;-32
2022/07/20 04:10:08;;;;;;;6.10;5.63;;;20.90;98.30;;;;;;4942186;28;89178;-34
2022/07/20 04:12:33;;;;;;;7.55;5.80;;;21.00;99.70;;;;;;4942448;28;89878;-33
2022/07/20 04:14:59;;;;;;;6.90;6.40;;;21.00;99.90;;;;;;4943514;28;89895;-33
2022/07/20 04:17:24;;;;;;;9.93;6.82;;;21.00;99.10;;;;;;4942483;28;88624;-32
2022/07/20 04:19:51;;;;;;;6.97;6.32;;;21.00;98.70;;;;;;4943092;28;91336;-32
2022/07/20 04:22:16;;;;;;;7.25;6.53;;;21.00;98.30;;;;;;4942239;28;91277;-33
2022/07/20 04:24:43;;;;;;;8.23;6.18;;;21.10;98.90;;;;;;4942718;28;90749;-32
2022/07/20 04:27:08;;;;;;;8.90;5.47;;;21.10;97.50;;;;;;4943092;28;89335;-31
2022/07/20 04:29:34;;;;;;;7.25;6.55;;;21.20;98.10;;;;;;4941965;28;89650;-32
2022/07/20 04:32:00;;;;;;;7.28;6.68;;;21.20;98.10;;;;;;4942334;28;90200;-34
2022/07/20 04:34:27;;;;;;;7.20;6.60;;;21.20;96.60;;;;;;4942779;28;90526;-34
2022/07/20 04:36:54;;;;;;;7.00;6.37;;;21.30;97.30;;;;;;4943088;28;87646;-31
2022/07/20 04:39:20;;;;;;;6.70;6.20;;;21.40;98.30;;;;;;4943162;28;90220;-32
2022/07/20 04:41:45;;;;;;;6.75;5.97;;;21.60;96.50;;;;;;4942421;28;89599;-32
2022/07/20 04:44:11;;;;;;;28.75;8.90;;;21.70;96.10;;;;;;4942847;28;90280;-32
2022/07/20 04:46:37;;;;;;;8.18;6.40;;;21.80;93.60;;;;;;4942353;28;90290;-33
2022/07/20 04:49:03;;;;;;;7.18;5.93;;;22.10;92.00;;;;;;4942559;28;90265;-33
2022/07/20 04:51:28;;;;;;;30.90;9.77;;;22.20;90.30;;;;;;4942531;28;89318;-35
2022/07/20 04:53:54;;;;;;;16.33;7.13;;;22.50;89.80;;;;;;4941920;28;89506;-35
2022/07/20 04:56:20;;;;;;;10.82;6.53;;;22.70;85.60;;;;;;4942130;28;88863;-36
2022/07/20 04:58:52;;;;;;;6.75;6.15;;;22.90;83.00;;;;;;4942333;28;90214;-35
2022/07/20 05:01:22;;;;;;;30.88;8.90;;;23.10;80.50;;;;;;4942412;28;89936;-32
2022/07/20 05:03:47;;;;;;;8.68;6.53;;;23.20;77.70;;;;;;4941083;28;89646;-33
2022/07/20 05:06:13;;;;;;;144.18;25.02;;;23.40;75.50;;;;;;4938982;28;89432;-35
2022/07/20 05:08:39;;;;;;;19.17;8.35;;;23.60;74.10;;;;;;4941474;28;90390;-34
2022/07/20 05:11:04;;;;;;;10.45;6.85;;;23.70;72.40;;;;;;4940707;28;91953;-32
2022/07/20 05:13:30;;;;;;;7.18;6.30;;;23.90;71.30;;;;;;4941689;28;90547;-33
2022/07/20 05:15:56;;;;;;;18.83;7.57;;;24.10;71.30;;;;;;4942353;28;87965;-33
2022/07/20 05:18:21;;;;;;;13.27;6.55;;;24.20;71.00;;;;;;4940934;28;89574;-33
2022/07/20 05:20:47;;;;;;;42.75;10.38;;;24.40;70.50;;;;;;4942481;28;90217;-32
2022/07/20 05:23:12;;;;;;;409.25;60.55;;;24.50;70.70;;;;;;4940536;28;89968;-33
2022/07/20 05:25:39;;;;;;;180.68;28.80;;;24.70;71.50;;;;;;4941346;28;89334;-32
2022/07/20 05:28:05;;;;;;;24.80;8.68;;;24.80;71.20;;;;;;4940870;28;88874;-35
2022/07/20 05:30:31;;;;;;;7.32;6.30;;;24.90;69.70;;;;;;4941381;28;89427;-33
2022/07/20 05:32:56;;;;;;;7.15;6.00;;;24.90;69.00;;;;;;4940326;28;88183;-32
2022/07/20 05:35:22;;;;;;;7.75;6.93;;;25.10;67.90;;;;;;4940903;28;89925;-32
2022/07/20 05:37:47;;;;;;;11.73;7.00;;;25.10;67.70;;;;;;4941695;28;89058;-33
2022/07/20 05:40:13;;;;;;;7.43;6.40;;;25.20;67.90;;;;;;4941526;28;89751;-34
2022/07/20 05:42:39;;;;;;;7.43;6.53;;;25.30;68.60;;;;;;4941395;28;89281;-31
2022/07/20 05:45:05;;;;;;;10.32;6.65;;;25.40;69.20;;;;;;4941810;28;88832;-32
2022/07/20 05:47:31;;;;;;;6.50;5.93;;;25.50;68.40;;;;;;4941515;28;90658;-34
2022/07/20 05:49:57;;;;;;;8.30;6.47;;;25.60;68.10;;;;;;4941200;28;89705;-32
2022/07/20 05:52:23;;;;;;;9.02;7.57;;;25.60;67.40;;;;;;4939198;28;89690;-32
2022/07/20 05:54:49;;;;;;;16.15;7.32;;;25.80;67.70;;;;;;4938787;28;89273;-30
2022/07/20 05:57:14;;;;;;;19.85;7.32;;;26.00;66.80;;;;;;4939195;28;90034;-34
2022/07/20 05:59:41;;;;;;;23.17;8.88;;;26.10;67.00;;;;;;4938127;28;90651;-32
2022/07/20 06:02:10;;;;;;;17.80;7.95;;;26.30;66.00;;;;;;4938068;28;90574;-34
2022/07/20 06:04:37;;;;;;;5.60;5.20;;;26.50;64.50;;;;;;4937566;28;88435;-33
2022/07/20 06:07:03;;;;;;;;;;;26.80;63.00;;;;;;4939508;28;90874;-33
2022/07/20 06:09:28;;;;;;;6.85;6.25;;;27.00;63.70;;;;;;4939450;28;89927;-32
2022/07/20 06:11:54;;;;;;;7.18;5.40;;;27.20;63.20;;;;;;4938794;28;88567;-32
2022/07/20 06:14:20;;;;;;;6.50;5.90;;;27.30;63.10;;;;;;4938342;28;89484;-33
2022/07/20 06:16:46;;;;;;;10.70;6.50;;;27.50;61.80;;;;;;4938450;28;90180;-35
2022/07/20 06:19:11;;;;;;;6.40;5.80;;;27.60;60.40;;;;;;4944289;28;89792;-32
2022/07/20 06:21:37;;;;;;;6.93;6.35;;;27.90;59.90;;;;;;4939777;28;89291;-31
2022/07/20 06:24:03;;;;;;;6.85;5.78;;;28.00;59.00;;;;;;4951166;28;88385;-32
2022/07/20 06:26:29;;;;;;;6.28;5.68;;;28.20;58.30;;;;;;4952548;28;89106;-33
2022/07/20 06:28:55;;;;;;;6.63;5.95;;;28.40;56.80;;;;;;4940152;28;90174;-31
2022/07/20 06:31:20;;;;;;;7.22;6.03;;;28.50;56.80;;;;;;4941597;28;88383;-33
2022/07/20 06:33:46;;;;;;;8.98;6.28;;;28.80;55.60;;;;;;4938561;28;90152;-34
2022/07/20 06:36:11;;;;;;;6.68;6.07;;;29.00;54.70;;;;;;4938837;28;90379;-34
2022/07/20 06:38:37;;;;;;;7.82;6.38;;;29.20;55.00;;;;;;4939529;28;89591;-35
2022/07/20 06:41:03;;;;;;;8.05;6.18;;;29.40;54.40;;;;;;4941350;28;88847;-32
2022/07/20 06:43:28;;;;;;;6.28;5.57;;;29.60;53.70;;;;;;4939158;28;87666;-32
2022/07/20 06:45:54;;;;;;;6.32;5.68;;;29.80;53.50;;;;;;4939869;28;90473;-35
2022/07/20 06:48:19;;;;;;;7.07;5.97;;;30.00;52.80;;;;;;4937856;28;91134;-34
2022/07/20 06:50:46;;;;;;;7.43;5.72;;;30.20;52.70;;;;;;4938052;28;90436;-32
2022/07/20 06:53:12;;;;;;;6.47;5.88;;;30.40;51.80;;;;;;4939028;28;88208;-33
2022/07/20 06:55:37;;;;;;;5.95;5.53;;;30.40;51.00;;;;;;4938612;28;90302;-34
2022/07/20 06:58:03;;;;;;;10.70;6.43;;;30.50;50.80;;;;;;4937398;28;89504;-32
2022/07/20 07:00:29;;;;;;;6.57;6.00;;;30.60;50.80;;;;;;4938825;28;89368;-34
2022/07/20 07:02:55;;;;;;;6.30;5.80;;;30.70;50.90;;;;;;4945913;28;88768;-36
2022/07/20 07:05:21;;;;;;;7.30;6.68;;;30.80;50.80;;;;;;4939291;28;90570;-32
2022/07/20 07:07:47;;;;;;;8.32;6.18;;;30.90;50.60;;;;;;4941100;28;89634;-34
2022/07/20 07:10:12;;;;;;;10.48;6.65;;;30.90;49.40;;;;;;4938250;28;88909;-32
2022/07/20 07:12:38;;;;;;;6.72;6.13;;;30.90;49.60;;;;;;4937064;28;89738;-33
2022/07/20 07:15:04;;;;;;;6.10;5.47;;;31.00;49.80;;;;;;4938185;28;89701;-33
2022/07/20 07:17:30;;;;;;;6.35;5.80;;;31.10;49.70;;;;;;4940929;28;90257;-36
2022/07/20 07:19:58;;;;;;;7.22;6.35;;;31.20;49.30;;;;;;4938416;28;89796;-34
2022/07/20 07:22:27;;;;;;;9.93;7.00;;;31.30;49.70;;;;;;4937978;28;89540;-33
2022/07/20 07:24:53;;;;;;;8.77;7.43;;;31.30;50.40;;;;;;4937945;28;90211;-34
2022/07/20 07:27:20;;;;;;;7.25;6.55;;;31.30;50.00;;;;;;4936963;28;89729;-34
2022/07/20 07:29:45;;;;;;;6.45;5.65;;;31.30;49.90;;;;;;4938578;28;90105;-35
2022/07/20 07:32:11;;;;;;;10.93;6.50;;;31.40;49.60;;;;;;4937180;28;88986;-34
2022/07/20 07:34:37;;;;;;;10.20;6.40;;;31.50;49.00;;;;;;4937976;28;90487;-33
2022/07/20 07:37:02;;;;;;;8.40;6.60;;;31.50;49.80;;;;;;4936635;28;90911;-34
2022/07/20 07:39:28;;;;;;;8.48;6.47;;;31.70;50.00;;;;;;4940353;28;90107;-33
2022/07/20 07:41:54;;;;;;;7.60;6.90;;;31.70;49.80;;;;;;4948933;28;88704;-35
2022/07/20 07:44:19;;;;;;;14.77;7.85;;;31.70;50.20;;;;;;4949783;28;88873;-33
2022/07/20 07:46:45;;;;;;;7.30;6.57;;;31.70;49.90;;;;;;4950404;28;89596;-32
2022/07/20 07:49:11;;;;;;;8.48;7.68;;;31.80;48.90;;;;;;4950099;28;88044;-34
2022/07/20 07:51:37;;;;;;;7.18;6.53;;;32.00;48.40;;;;;;4950786;28;88410;-35
2022/07/20 07:54:03;;;;;;;9.57;7.55;;;32.00;48.10;;;;;;4948669;28;91193;-34
2022/07/20 07:56:29;;;;;;;10.48;7.78;;;32.10;48.40;;;;;;4950999;28;91300;-34
2022/07/20 07:58:54;;;;;;;12.68;7.18;;;32.20;47.90;;;;;;4949683;28;89934;-33
2022/07/20 08:01:20;;;;;;;7.70;7.03;;;32.20;48.30;;;;;;4945197;28;88873;-35
2022/07/20 08:03:46;;;;;;;9.43;8.60;;;32.20;48.30;;;;;;4938509;28;89024;-34
2022/07/20 08:06:11;;;;;;;8.23;7.43;;;32.10;48.90;;;;;;4945115;28;88733;-32
2022/07/20 08:08:37;;;;;;;12.70;8.20;;;32.00;48.60;;;;;;4948255;28;89732;-33
2022/07/20 08:11:03;;;;;;;11.40;8.05;;;32.00;48.70;;;;;;4947421;28;88186;-36
2022/07/20 08:13:29;;;;;;;12.70;8.00;;;32.00;49.00;;;;;;4948102;28;90150;-35
2022/07/20 08:15:55;;;;;;;9.32;8.35;;;32.00;50.20;;;;;;4947872;28;90089;-35
2022/07/20 08:18:21;;;;;;;9.68;8.70;;;32.00;51.20;;;;;;4946659;28;89448;-32
2022/07/20 08:20:47;;;;;;;11.55;9.18;;;32.20;50.60;;;;;;4947888;28;87779;-35
2022/07/20 08:23:12;;;;;;;10.77;8.90;;;32.10;50.70;;;;;;4946044;28;90181;-32
2022/07/20 08:25:38;;;;;;;18.42;10.65;;;32.00;51.40;;;;;;4944894;28;90531;-35
2022/07/20 08:28:15;;;;;;;15.80;10.93;;;31.90;51.90;;;;;;4944513;28;90378;-32
2022/07/20 08:30:42;;;;;;;;;;;32.00;54.00;;;;;;4946727;28;88140;-34
2022/07/20 08:33:08;;;;;;;14.63;10.52;;;31.90;53.30;;;;;;4954947;28;90867;-33
2022/07/20 08:35:34;;;;;;;12.57;11.27;;;31.90;53.90;;;;;;4948766;28;89143;-34
2022/07/20 08:38:00;;;;;;;12.95;11.38;;;32.00;54.20;;;;;;4948587;28;89674;-33
2022/07/20 08:40:27;;;;;;;16.05;13.68;;;32.00;54.20;;;;;;4951068;28;89088;-33
2022/07/20 08:42:52;;;;;;;83.82;24.45;;;32.10;54.70;;;;;;4953302;28;90298;-32
2022/07/20 08:45:18;;;;;;;18.23;16.23;;;32.20;55.10;;;;;;4952809;28;89544;-32
2022/07/20 08:47:45;;;;;;;28.80;19.13;;;32.10;56.00;;;;;;4952696;28;89439;-33
2022/07/20 08:50:11;;;;;;;20.63;18.08;;;32.00;57.10;;;;;;4952286;28;88387;-33
2022/07/20 08:52:37;;;;;;;26.40;19.88;;;32.00;57.60;;;;;;4952836;28;90442;-35
2022/07/20 08:55:04;;;;;;;23.35;18.33;;;31.80;58.50;;;;;;4952711;28;89663;-35
2022/07/20 08:57:31;;;;;;;27.13;19.13;;;31.70;59.20;;;;;;4951920;28;88622;-33
2022/07/20 08:59:56;;;;;;;23.88;18.38;;;31.80;59.60;;;;;;4942818;28;88620;-33
2022/07/20 09:02:22;;;;;;;41.60;21.05;;;32.00;59.80;;;;;;4941125;28;90155;-35
2022/07/20 09:04:54;;;;;;;35.95;21.50;;;32.10;59.10;;;;;;4940338;28;89823;-35
2022/07/20 09:07:46;;;;;;;23.48;20.15;;;32.00;59.50;;;;;;4939079;28;89523;-32
2022/07/20 09:10:14;;;;;;;21.98;19.58;;;32.00;60.10;;;;;;4938621;28;89039;-35
2022/07/20 09:12:59;;;;;;;24.25;20.52;;;32.00;60.70;;;;;;4938993;28;90083;-34
2022/07/20 09:15:26;;;;;;;23.27;20.98;;;32.10;60.40;;;;;;4938419;28;90453;-34
2022/07/20 09:18:08;;;;;;;20.77;18.77;;;32.10;61.20;;;;;;4938026;28;90101;-35
2022/07/20 09:20:36;;;;;;;25.63;20.45;;;32.20;61.00;;;;;;4939595;28;89642;-34
2022/07/20 09:23:04;;;;;;;27.05;20.10;;;32.20;61.00;;;;;;4938428;28;90223;-34
2022/07/20 09:25:30;;;;;;;25.88;20.50;;;32.20;61.00;;;;;;4941776;28;89297;-36
2022/07/20 09:27:56;;;;;;;27.83;21.40;;;32.30;60.30;;;;;;4938661;28;88463;-33
2022/07/20 09:30:22;;;;;;;52.67;24.95;;;32.00;60.90;;;;;;4937773;28;88812;-34
2022/07/20 09:32:50;;;;;;;22.95;20.63;;;32.00;60.80;;;;;;4938705;28;90200;-35
2022/07/20 09:35:17;;;;;;;66.82;25.52;;;31.90;61.50;;;;;;4938832;28;89702;-33
2022/07/20 09:37:43;;;;;;;31.00;22.73;;;31.90;60.90;;;;;;4938509;28;90767;-33
2022/07/20 09:40:09;;;;;;;30.88;25.17;;;31.80;61.00;;;;;;4938536;28;90255;-33
2022/07/20 09:42:39;;;;;;;37.80;25.25;;;31.80;60.00;;;;;;4938756;28;90071;-36
2022/07/20 09:45:23;;;;;;;29.67;26.65;;;31.80;60.00;;;;;;4938943;28;89581;-34
2022/07/20 09:48:10;;;;;;;33.67;24.92;;;31.70;60.20;;;;;;4938493;28;89615;-33
2022/07/20 09:50:42;;;;;;;27.25;24.05;;;31.70;61.30;;;;;;4938654;28;90096;-35
2022/07/20 09:53:09;;;;;;;33.60;23.10;;;31.70;61.60;;;;;;4938539;28;91801;-34
2022/07/20 09:55:37;;;;;;;80.03;33.80;;;31.80;61.30;;;;;;4938539;28;89144;-33
2022/07/20 09:58:03;;;;;;;26.55;23.85;;;31.90;60.90;;;;;;4938406;28;89072;-34
2022/07/20 10:00:30;;;;;;;29.88;23.95;;;31.80;61.70;;;;;;4939190;28;88915;-32
2022/07/20 10:02:58;;;;;;;31.95;23.85;;;31.90;61.30;;;;;;4942361;28;90699;-33
2022/07/20 10:05:26;;;;;;;27.30;24.48;;;32.00;61.20;;;;;;4942183;28;91455;-33
2022/07/20 10:07:53;;;;;;;32.58;25.92;;;32.20;60.50;;;;;;4938159;28;89546;-36
2022/07/20 10:10:19;;;;;;;35.08;24.58;;;32.20;61.00;;;;;;4937292;28;90224;-34
2022/07/20 10:12:45;;;;;;;27.25;23.80;;;32.30;60.40;;;;;;4938504;28;90336;-33
2022/07/20 10:15:13;;;;;;;25.17;22.33;;;32.40;59.50;;;;;;4938703;28;89848;-35
2022/07/20 10:17:41;;;;;;;27.60;22.45;;;32.50;57.00;;;;;;4938510;28;89530;-34
2022/07/20 10:20:30;;;;;;;26.40;22.23;;;32.30;56.80;;;;;;4937952;28;89873;-33
2022/07/20 10:23:14;;;;;;;31.33;23.10;;;32.10;56.80;;;;;;4938175;28;89764;-36
2022/07/20 10:25:42;;;;;;;23.63;20.30;;;32.10;57.60;;;;;;4937379;28;89373;-33
2022/07/20 10:28:24;;;;;;;29.63;21.67;;;32.00;57.30;;;;;;4936932;28;89644;-34
2022/07/20 10:30:55;;;;;;;28.10;21.63;;;32.00;56.70;;;;;;4937534;28;90141;-33
2022/07/20 10:33:23;;;;;;;22.95;20.55;;;32.00;56.50;;;;;;4936967;28;90077;-33
2022/07/20 10:35:49;;;;;;;23.38;20.83;;;32.00;56.00;;;;;;4937082;28;89474;-32
2022/07/20 10:38:20;;;;;;;26.10;19.20;;;31.90;56.40;;;;;;4937509;28;89770;-34
2022/07/20 10:44:19;;;;;;;24.42;19.77;;;31.80;57.20;;;;;;4938419;28;90860;-34
2022/07/20 10:46:46;;;;;;;24.13;19.65;;;31.80;56.50;;;;;;4927559;28;90137;-33
2022/07/20 10:49:12;;;;;;;20.37;18.33;;;31.90;56.90;;;;;;4936909;28;89570;-36
2022/07/20 10:51:39;;;;;;;27.88;19.75;;;32.10;55.30;;;;;;4938114;28;89876;-34
2022/07/20 10:54:32;;;;;;;62.70;22.35;;;32.10;54.40;;;;;;4937454;28;90251;-34
2022/07/20 10:56:58;;;;;;;25.27;18.13;;;31.90;54.40;;;;;;4935898;28;90509;-36
2022/07/20 10:59:24;;;;;;;19.50;17.67;;;31.70;55.20;;;;;;4937230;28;90713;-34
2022/07/20 11:01:50;;;;;;;19.75;17.83;;;31.60;55.10;;;;;;4937740;28;88407;-35
2022/07/20 11:04:16;;;;;;;49.90;20.63;;;31.40;55.50;;;;;;4935999;28;90348;-34
2022/07/20 11:06:42;;;;;;;19.38;17.38;;;31.50;56.10;;;;;;4938350;28;89513;-33
2022/07/20 11:09:08;;;;;;;20.17;17.55;;;31.60;56.30;;;;;;4936204;28;89408;-33
2022/07/20 11:11:38;;;;;;;22.75;18.33;;;31.70;55.10;;;;;;4937871;28;89811;-37
2022/07/20 11:14:05;;;;;;;45.40;22.08;;;31.70;55.20;;;;;;4937548;28;90941;-33
2022/07/20 11:16:32;;;;;;;;;;;31.70;55.80;;;;;;4938707;28;90454;-34
2022/07/20 11:18:59;;;;;;;31.05;19.00;;;31.70;55.60;;;;;;4938471;28;89440;-36
2022/07/20 11:21:39;;;;;;;24.35;19.73;;;31.70;55.80;;;;;;4937381;28;89538;-31
2022/07/20 11:24:26;;;;;;;24.20;17.02;;;31.80;55.50;;;;;;4936674;28;90303;-35
2022/07/20 11:26:52;;;;;;;;;;;31.80;55.90;;;;;;4937882;28;89716;-32
2022/07/20 11:29:18;;;;;;;37.08;17.80;;;31.80;55.70;;;;;;4939132;28;88269;-34
2022/07/20 11:31:43;;;;;;;17.77;15.73;;;31.90;54.70;;;;;;4937140;28;88301;-34
2022/07/20 11:34:12;;;;;;;30.00;15.57;;;31.80;54.90;;;;;;4936583;28;90604;-34
2022/07/20 11:36:38;;;;;;;16.52;14.95;;;31.80;54.30;;;;;;4937349;28;89728;-35
2022/07/20 11:39:06;;;;;;;64.13;21.65;;;31.70;54.90;;;;;;4936906;28;89792;-32
2022/07/20 11:41:35;;;;;;;17.42;13.38;;;31.60;55.20;;;;;;4937003;28;89012;-34
2022/07/20 11:44:02;;;;;;;19.45;12.82;;;31.70;54.40;;;;;;4936187;28;89748;-33
2022/07/20 11:46:37;;;;;;;17.77;14.00;;;31.80;54.20;;;;;;4936821;28;90649;-35
2022/07/20 11:49:05;;;;;;;17.95;14.00;;;31.70;54.50;;;;;;4936658;28;91413;-32
2022/07/20 11:51:35;;;;;;;18.13;12.90;;;31.60;54.80;;;;;;4937269;28;88280;-34
2022/07/20 11:54:01;;;;;;;31.90;14.95;;;31.50;54.70;;;;;;4936370;28;90664;-35
2022/07/20 11:56:29;;;;;;;13.70;11.95;;;31.50;54.70;;;;;;4936853;28;89735;-35
2022/07/20 11:58:59;;;;;;;16.25;11.57;;;31.40;55.10;;;;;;4942657;28;91139;-34
2022/07/20 12:01:36;;;;;;;16.35;11.68;;;31.40;54.80;;;;;;4946724;28;88360;-33
2022/07/20 12:04:11;;;;;;;94.07;23.50;;;31.40;55.40;;;;;;4948632;28;90035;-35
2022/07/20 12:06:39;;;;;;;19.52;11.80;;;31.40;55.30;;;;;;4942865;28;89543;-35
2022/07/20 12:11:53;;;;;;;23.10;12.13;;;31.50;54.80;;;;;;4892162;28;88605;-35
2022/07/20 12:14:33;;;;;;;16.15;12.43;;;31.40;55.80;;;;;;4889131;28;90335;-34
2022/07/20 12:17:25;;;;;;;15.45;12.32;;;31.40;55.50;;;;;;4895843;28;88768;-35
2022/07/20 12:19:54;;;;;;;23.48;12.10;;;31.40;56.10;;;;;;4894877;28;91668;-35
2022/07/20 12:22:28;;;;;;;15.13;11.55;;;31.40;55.20;;;;;;4894684;28;88048;-35
2022/07/20 12:25:12;;;;;;;11.73;10.63;;;31.50;55.60;;;;;;4891525;28;90285;-35
2022/07/20 12:27:38;;;;;;;41.80;16.25;;;31.40;55.30;;;;;;4883919;28;89842;-34
2022/07/20 12:30:22;;;;;;;17.33;12.18;;;31.40;55.20;;;;;;4884289;28;89691;-32
2022/07/20 12:33:05;;;;;;;14.13;11.48;;;31.40;56.50;;;;;;4883348;28;88881;-36
2022/07/20 12:35:30;;;;;;;13.48;10.85;;;31.50;54.80;;;;;;4893454;28;90369;-35
2022/07/20 12:37:56;;;;;;;12.65;10.15;;;31.40;54.80;;;;;;4884243;28;90762;-34
2022/07/20 12:40:44;;;;;;;25.45;13.40;;;31.50;54.10;;;;;;4888734;28;89432;-34
2022/07/20 12:43:30;;;;;;;18.85;10.73;;;31.50;53.70;;;;;;4891476;28;88243;-34
2022/07/20 12:46:07;;;;;;;207.07;34.75;;;31.50;53.70;;;;;;4895339;28;89560;-32
2022/07/20 12:48:40;;;;;;;26.85;12.77;;;31.60;53.70;;;;;;4893713;28;89650;-32
2022/07/20 12:51:07;;;;;;;12.48;10.73;;;31.50;53.60;;;;;;4889460;28;90056;-34
2022/07/20 12:53:34;;;;;;;19.80;10.65;;;31.50;54.00;;;;;;4882332;28;89053;-36